• Join FlightAware (Why Join?)
  • Login
  • US Flag 
12:58PM EDT


 

Airport Tracker/Info


-or-


 

Live Flight TrackerFlight Track Log ✈ N2233X ✈ 17-May-2013 ✈ KBVY - KDXR

Flight Track Log - Related Links

Times and Time Zones

All times are in EDT time to prevent confusion due to time zone crossing. See the N2233X flight status page for this flight to view local times or setup timezone preferences in your user account.

Time Position Orientation Groundspeed Altitude Reporting Facility
EDT Latitude Longitude Course Direction KTS MPH feet Rate Location/Type
01:00PM 42.3500 -71.6500 236° Southwest 117 135 4,600  Level KA90
01:01PM 42.3333 -71.6833 236° Southwest 119 137 4,500 -120 Descending KA90
01:02PM 42.3128 -71.7158 229° Southwest 118 136 4,400 -120 Descending Boston Center
01:02PM 42.3064 -71.7269 232° Southwest 119 137 4,400 60 Level Boston Center
01:03PM 42.2858 -71.7639 233° Southwest 122 140 4,500  Climbing Boston Center
01:04PM 42.2672 -71.8033 237° Southwest 123 142 4,500  Level Boston Center
01:05PM 42.2467 -71.8372 231° Southwest 122 140 4,500 -60 Level Boston Center
01:06PM 42.2261 -71.8767 235° Southwest 119 137 4,400  Descending Boston Center
01:07PM 42.2075 -71.9131 235° Southwest 117 135 4,500  Climbing Boston Center
01:08PM 42.1889 -71.9497 236° Southwest 119 137 4,500  Level Boston Center
01:09PM 42.1703 -71.9864 236° Southwest 120 138 4,500  Level Boston Center
01:10PM 42.1494 -72.0256 234° Southwest 125 144 4,500  Level Boston Center
01:11PM 42.1289 -72.0622 233° Southwest 124 143 4,500  Level Boston Center
01:12PM 42.1081 -72.1042 236° Southwest 123 142 4,600  Climbing Boston Center
01:13PM 42.0894 -72.1381 234° Southwest 120 138 4,500 -60 Descending Boston Center
01:14PM 42.0708 -72.1744 235° Southwest 118 136 4,500  Level Boston Center
01:15PM 42.0500 -72.2108 232° Southwest 119 137 4,500  Level Boston Center
01:16PM 42.0292 -72.2500 234° Southwest 130 150 4,500 -60 Level Boston Center
01:17PM 42.0086 -72.2919 237° Southwest 125 144 4,400  Descending Boston Center
01:18PM 41.9897 -72.3256 233° Southwest 114 131 4,500  Climbing Boston Center
01:19PM 41.9689 -72.3619 232° Southwest 122 140 4,500 60 Level Boston Center
01:20PM 41.9503 -72.3983 235° Southwest 118 136 4,700  Climbing Boston Center
01:21PM 41.9272 -72.4372 231° Southwest 124 143 4,500 -120 Descending Boston Center
01:22PM 41.9064 -72.4764 234° Southwest 122 140 4,500  Level Boston Center
01:23PM 41.8897 -72.5153 240° Southwest 127 146 4,600  Climbing Boston Center
01:24PM 41.8689 -72.5544 234° Southwest 124 143 4,600  Level Boston Center
01:25PM 41.8481 -72.5906 232° Southwest 125 144 4,600 -60 Level Boston Center
01:26PM 41.8272 -72.6294 234° Southwest 122 140 4,500 -60 Descending Boston Center
01:27PM 41.8061 -72.6656 232° Southwest 118 136 4,500  Level Boston Center
01:28PM 41.7894 -72.7017 238° Southwest 120 138 4,500  Level Boston Center
01:29PM 41.7686 -72.7378 232° Southwest 122 140 4,500  Level Boston Center
01:30PM 41.7475 -72.7767 234° Southwest 121 139 4,500 -60 Level Boston Center
01:31PM 41.7267 -72.8128 232° Southwest 119 137 4,400  Descending Boston Center
01:32PM 41.7119 -72.8489 241° Southwest 117 135 4,500  Climbing Boston Center
01:33PM 41.6931 -72.8878 237° Southwest 126 145 4,500  Level Boston Center
01:35PM 41.6667 -72.9500 240° Southwest 122 140 4,600  Climbing New York TRACON
01:36PM 41.6500 -72.9833 236° Southwest 131 151 4,600 -60 Level New York TRACON
01:37PM 41.6167 -73.0167 217° Southwest 133 153 4,500 -60 Descending New York TRACON
01:38PM 41.6000 -73.0500 236° Southwest 125 144 4,500  Level New York TRACON
01:39PM 41.5833 -73.1000 246° West 105 121 4,600  Climbing New York TRACON
01:40PM 41.5667 -73.1333 236° Southwest 126 145 4,600  Level New York TRACON
01:41PM 41.5500 -73.1667 236° Southwest 123 142 4,600  Level New York TRACON
01:42PM 41.5167 -73.2000 217° Southwest 124 143 4,600  Level New York TRACON
01:44PM 41.4831 -73.2338 236° Southwest  Level FlightAware Approximate
01:51PM 41.3857 -73.4286 236° Southwest  Level FlightAware Approximate
01:52PM 41.3718 -73.4564 236° Southwest  Level FlightAware Approximate
01:53PM 41.3667 -73.4667 236° Southwest  Level FlightAware Approximate
01:54PM 41.3715 -73.4822 236° Southwest  Level Estimated
01:55PM 41.3715 -73.4822 236° Southwest  Level Estimated
01:56PM 41.3715 -73.4822 236° Southwest  Level Estimated
01:57PM 41.3715 -73.4822 236° Southwest  Level Estimated
01:58PM 41.3715 -73.4822 236° Southwest  Level Estimated
01:59PM 41.3715 -73.4822 236° Southwest  Level Estimated
02:00PM 41.3715 -73.4822 236° Southwest  Level Estimated
02:01PM 41.3715 -73.4822 236° Southwest  Level Estimated
02:02PM 41.3715 -73.4822 236° Southwest  Level Estimated